Time;durP1;ratioP1;P1;durP2;ratioP2;P2;SDS_P1;SDS_P2;PMS_P1;PMS_P2;Temp;Humidity;BMP_temperature;BMP_pressure;BME280_temperature;BME280_humidity;BME280_pressure;Samples;Min_cycle;Max_cycle;Signal;HPM_P1;HPM_P2
2023/05/28 00:00:10;;;;;;;15.32;4.80;;;13.50;99.90;;;;;;5097181;28;20505;-84
2023/05/28 00:02:36;;;;;;;15.23;4.50;;;13.40;99.90;;;;;;5114824;28;20050;-85
2023/05/28 00:05:03;;;;;;;15.18;6.65;;;13.30;99.90;;;;;;5114923;28;20040;-85
2023/05/28 00:07:30;;;;;;;10.05;3.70;;;13.30;99.90;;;;;;5115918;28;20043;-85
2023/05/28 00:09:56;;;;;;;13.07;4.57;;;13.20;99.90;;;;;;5114148;28;20040;-85
2023/05/28 00:12:22;;;;;;;17.17;7.40;;;13.10;99.90;;;;;;5114765;28;20091;-84
2023/05/28 00:14:48;;;;;;;14.48;4.15;;;13.20;99.90;;;;;;5114410;28;20446;-85
2023/05/28 00:17:15;;;;;;;13.98;4.28;;;13.10;99.90;;;;;;5114503;28;20122;-85
2023/05/28 00:19:41;;;;;;;12.65;4.97;;;13.10;99.90;;;;;;5115482;28;20074;-85
2023/05/28 00:22:07;;;;;;;12.57;4.32;;;13.00;99.90;;;;;;5114405;28;20071;-85
2023/05/28 00:24:33;;;;;;;17.35;7.85;;;12.90;99.90;;;;;;5114596;28;20039;-84
2023/05/28 00:26:58;;;;;;;22.33;4.88;;;13.00;99.90;;;;;;5113928;28;20385;-84
2023/05/28 00:29:26;;;;;;;14.43;4.05;;;12.90;99.90;;;;;;5097035;28;20058;-85
2023/05/28 00:31:55;;;;;;;17.83;5.25;;;12.90;99.90;;;;;;5114427;28;20531;-85
2023/05/28 00:34:24;;;;;;;18.33;7.10;;;12.80;99.90;;;;;;5114168;28;20053;-84
2023/05/28 00:36:50;;;;;;;16.17;4.50;;;12.90;99.90;;;;;;5114145;28;20035;-85
2023/05/28 00:39:16;;;;;;;15.48;4.45;;;12.90;99.90;;;;;;5113816;28;20040;-85
2023/05/28 00:41:42;;;;;;;15.93;4.57;;;12.80;99.90;;;;;;5113682;28;20043;-85
2023/05/28 00:44:11;;;;;;;17.27;7.72;;;12.80;99.90;;;;;;5113824;28;20454;-85
2023/05/28 00:46:39;;;;;;;17.13;8.02;;;12.90;99.90;;;;;;5113977;28;20150;-85
2023/05/28 00:49:05;;;;;;;15.57;4.82;;;13.00;99.90;;;;;;5113649;28;20039;-85
2023/05/28 00:51:31;;;;;;;11.32;3.78;;;12.90;99.90;;;;;;5113585;28;20040;-85
2023/05/28 00:53:58;;;;;;;12.63;5.25;;;12.80;99.90;;;;;;5113886;28;20496;-85
2023/05/28 00:56:24;;;;;;;12.93;5.05;;;12.80;99.90;;;;;;5096992;28;20058;-84
2023/05/28 00:58:51;;;;;;;13.10;5.10;;;12.70;99.90;;;;;;5113838;28;20049;-84
2023/05/28 01:01:17;;;;;;;17.55;5.28;;;12.80;99.90;;;;;;5113302;28;20496;-84
2023/05/28 01:03:43;;;;;;;14.15;4.40;;;12.70;99.90;;;;;;5113633;28;20047;-85
2023/05/28 01:06:14;;;;;;;16.40;5.97;;;12.70;99.90;;;;;;5113740;28;20054;-85
2023/05/28 01:08:41;;;;;;;15.55;4.55;;;12.70;99.90;;;;;;5114629;28;20040;-85
2023/05/28 01:11:11;;;;;;;14.73;4.50;;;12.70;99.90;;;;;;5113020;28;20397;-85
2023/05/28 01:13:38;;;;;;;18.35;8.18;;;12.60;99.90;;;;;;5113428;28;20114;-84
2023/05/28 01:16:04;;;;;;;14.68;8.40;;;12.70;99.90;;;;;;5113371;28;20043;-84
2023/05/28 01:18:31;;;;;;;15.77;4.40;;;12.80;99.90;;;;;;5113223;28;20051;-84
2023/05/28 01:21:03;;;;;;;20.48;8.05;;;12.70;99.90;;;;;;5112957;28;20089;-84
2023/05/28 01:23:32;;;;;;;14.43;4.63;;;12.80;99.90;;;;;;5113226;28;20093;-84
2023/05/28 01:25:59;;;;;;;14.68;3.92;;;12.70;99.90;;;;;;5113097;28;20056;-84
2023/05/28 01:28:25;;;;;;;15.18;4.57;;;12.60;99.90;;;;;;5112896;28;20079;-85
2023/05/28 01:30:52;;;;;;;13.15;4.80;;;12.60;99.90;;;;;;5112754;28;20439;-85
2023/05/28 01:33:20;;;;;;;20.27;8.75;;;12.50;99.90;;;;;;5112981;28;20497;-85
2023/05/28 01:35:46;;;;;;;11.25;4.72;;;12.60;99.90;;;;;;5114194;28;20472;-85
2023/05/28 01:38:14;;;;;;;16.05;4.32;;;12.60;99.90;;;;;;5112678;28;20075;-85
2023/05/28 01:40:43;;;;;;;14.75;4.65;;;12.50;99.90;;;;;;5112628;28;20051;-85
2023/05/28 01:43:08;;;;;;;15.65;7.53;;;12.40;99.90;;;;;;5112996;28;20088;-85
2023/05/28 01:45:35;;;;;;;13.77;5.13;;;12.50;99.90;;;;;;5114202;28;20040;-85
2023/05/28 01:48:01;;;;;;;12.98;4.32;;;12.40;99.90;;;;;;5112538;28;20068;-85
2023/05/28 01:50:28;;;;;;;11.95;4.25;;;12.30;99.90;;;;;;5112306;28;20039;-85
2023/05/28 01:52:54;;;;;;;12.85;5.00;;;12.20;99.90;;;;;;5113966;28;20058;-85
2023/05/28 01:55:20;;;;;;;10.95;4.18;;;12.20;99.90;;;;;;5113718;28;20075;-84
2023/05/28 01:57:46;;;;;;;13.25;5.07;;;12.10;99.90;;;;;;5112550;28;20100;-84
2023/05/28 02:00:13;;;;;;;11.52;3.95;;;12.00;99.90;;;;;;5112083;28;20400;-84
2023/05/28 02:02:41;;;;;;;12.90;4.50;;;11.90;99.90;;;;;;5112790;28;20047;-85
2023/05/28 02:05:07;;;;;;;10.30;4.03;;;11.80;99.90;;;;;;5112144;28;20043;-84
2023/05/28 02:07:33;;;;;;;11.25;3.83;;;11.70;99.90;;;;;;5113567;28;20046;-84
2023/05/28 02:09:58;;;;;;;13.70;4.72;;;11.50;99.90;;;;;;5111923;28;20055;-85
2023/05/28 02:12:24;;;;;;;14.40;7.70;;;11.40;99.90;;;;;;5113567;28;20046;-84
2023/05/28 02:14:50;;;;;;;14.40;4.75;;;11.40;99.90;;;;;;5112242;28;20040;-85
2023/05/28 02:17:17;;;;;;;13.38;5.25;;;11.50;99.90;;;;;;5113213;28;20039;-85
2023/05/28 02:19:43;;;;;;;12.52;4.72;;;11.50;99.90;;;;;;5111656;28;20568;-85
2023/05/28 02:22:12;;;;;;;15.13;4.70;;;11.40;99.90;;;;;;5111959;28;20047;-85
2023/05/28 02:24:39;;;;;;;14.25;4.72;;;11.50;99.90;;;;;;5112066;28;20063;-85
2023/05/28 02:27:06;;;;;;;11.57;4.45;;;11.50;99.90;;;;;;5113109;28;20032;-85
2023/05/28 02:29:32;;;;;;;19.58;9.02;;;11.50;99.90;;;;;;5111525;28;20078;-85
2023/05/28 02:31:58;;;;;;;14.45;5.38;;;11.60;99.90;;;;;;5111828;28;20075;-85
2023/05/28 02:34:24;;;;;;;15.30;5.18;;;11.70;99.90;;;;;;5112096;28;20035;-85
2023/05/28 02:36:52;;;;;;;16.17;5.40;;;11.70;99.90;;;;;;5111771;28;20496;-85
2023/05/28 02:39:18;;;;;;;15.57;5.53;;;11.70;99.90;;;;;;5112859;28;20505;-85
2023/05/28 02:41:44;;;;;;;18.95;5.90;;;11.70;99.90;;;;;;5111447;28;20124;-84
2023/05/28 02:44:09;;;;;;;22.55;10.32;;;11.70;99.90;;;;;;5111885;28;20043;-84
2023/05/28 02:46:35;;;;;;;19.05;9.73;;;11.80;99.90;;;;;;5111638;28;20044;-84
2023/05/28 02:49:00;;;;;;;17.55;5.90;;;11.90;99.90;;;;;;5111290;28;20039;-85
2023/05/28 02:51:26;;;;;;;13.98;5.47;;;11.90;99.90;;;;;;5111242;28;20036;-85
2023/05/28 02:53:52;;;;;;;19.20;5.97;;;11.80;99.90;;;;;;5111720;28;20067;-85
2023/05/28 02:56:17;;;;;;;12.48;4.80;;;11.80;99.90;;;;;;5111353;28;20035;-85
2023/05/28 02:58:43;;;;;;;17.45;5.82;;;11.80;99.90;;;;;;5112640;28;20074;-84
2023/05/28 03:01:08;;;;;;;16.92;6.03;;;11.80;99.90;;;;;;5111021;28;20501;-85
2023/05/28 03:03:34;;;;;;;16.58;5.60;;;11.80;99.90;;;;;;5112583;28;20043;-85
2023/05/28 03:06:00;;;;;;;14.07;5.80;;;11.90;99.90;;;;;;5112482;28;20040;-85
2023/05/28 03:08:26;;;;;;;12.45;5.53;;;11.80;99.90;;;;;;5112438;28;20101;-85
2023/05/28 03:10:51;;;;;;;20.85;10.15;;;11.80;99.90;;;;;;5111065;28;20044;-85
2023/05/28 03:13:17;;;;;;;17.38;5.85;;;12.00;99.90;;;;;;5094251;28;20578;-84
2023/05/28 03:15:42;;;;;;;15.02;5.45;;;12.00;99.90;;;;;;5111031;28;20040;-85
2023/05/28 03:18:08;;;;;;;15.63;5.28;;;11.90;99.90;;;;;;5111058;28;20043;-85
2023/05/28 03:20:34;;;;;;;16.77;5.72;;;11.90;99.90;;;;;;5110954;28;20039;-85
2023/05/28 03:22:59;;;;;;;18.33;6.43;;;11.90;99.90;;;;;;5110856;28;20405;-85
2023/05/28 03:25:25;;;;;;;18.90;7.18;;;12.00;99.90;;;;;;5110978;28;20507;-85
2023/05/28 03:27:52;;;;;;;16.80;6.22;;;12.00;99.90;;;;;;5111173;28;20130;-85
2023/05/28 03:30:18;;;;;;;15.60;5.82;;;12.00;99.90;;;;;;5109913;28;20050;-85
2023/05/28 03:32:43;;;;;;;14.85;4.95;;;12.00;99.90;;;;;;5110808;28;20043;-85
2023/05/28 03:35:09;;;;;;;13.95;5.75;;;12.00;99.90;;;;;;5110936;28;20127;-85
2023/05/28 03:37:35;;;;;;;15.10;5.75;;;12.00;99.90;;;;;;5110878;28;20370;-84
2023/05/28 03:40:00;;;;;;;17.13;6.88;;;12.00;99.90;;;;;;5110552;28;20081;-84
2023/05/28 03:42:26;;;;;;;17.02;5.70;;;12.00;99.90;;;;;;5112082;28;20032;-84
2023/05/28 03:44:52;;;;;;;14.93;5.82;;;12.10;99.90;;;;;;5110884;28;20049;-84
2023/05/28 03:47:18;;;;;;;15.95;5.03;;;12.00;99.90;;;;;;5111089;28;20097;-84
2023/05/28 03:49:43;;;;;;;17.65;6.03;;;12.00;99.90;;;;;;5110159;28;20047;-84
2023/05/28 03:52:09;;;;;;;18.42;9.48;;;12.10;99.90;;;;;;5110802;28;20039;-84
2023/05/28 03:54:35;;;;;;;19.80;9.40;;;12.10;99.90;;;;;;5110676;28;20412;-84
2023/05/28 03:57:01;;;;;;;20.77;5.32;;;12.20;99.90;;;;;;5110590;28;20056;-84
2023/05/28 03:59:27;;;;;;;14.02;5.53;;;12.20;99.90;;;;;;5110253;28;20062;-84
2023/05/28 04:01:52;;;;;;;14.45;5.15;;;12.20;99.90;;;;;;5110619;28;20051;-84
2023/05/28 04:04:18;;;;;;;12.48;5.20;;;12.20;99.90;;;;;;5110894;28;20047;-84
2023/05/28 04:06:44;;;;;;;16.52;5.05;;;12.20;99.90;;;;;;5110932;28;20051;-85
2023/05/28 04:09:09;;;;;;;19.98;6.13;;;12.10;99.90;;;;;;5110570;28;20039;-85
2023/05/28 04:11:37;;;;;;;21.65;9.82;;;12.10;99.90;;;;;;5110183;28;20444;-85
2023/05/28 04:14:03;;;;;;;20.17;9.35;;;12.20;99.90;;;;;;5111807;28;20085;-84
2023/05/28 04:16:29;;;;;;;16.92;5.32;;;12.30;99.90;;;;;;5093480;28;20040;-84
2023/05/28 04:18:55;;;;;;;23.20;6.30;;;12.30;99.90;;;;;;5110420;28;20047;-85
2023/05/28 04:21:22;;;;;;;16.90;5.38;;;12.30;99.90;;;;;;5110172;28;20046;-85
2023/05/28 04:23:47;;;;;;;18.27;9.20;;;12.30;99.90;;;;;;5110666;28;20500;-85
2023/05/28 04:26:14;;;;;;;15.20;5.10;;;12.40;99.90;;;;;;5111439;28;20119;-84
2023/05/28 04:28:40;;;;;;;14.20;5.10;;;12.40;99.90;;;;;;5110378;28;20070;-85
2023/05/28 04:31:06;;;;;;;19.58;8.88;;;12.40;99.90;;;;;;5111420;28;20039;-85
2023/05/28 04:33:32;;;;;;;15.25;5.35;;;12.40;99.90;;;;;;5110401;28;20393;-85
2023/05/28 04:35:58;;;;;;;13.43;4.75;;;12.50;99.90;;;;;;5110403;28;20051;-84
2023/05/28 04:38:24;;;;;;;11.68;4.82;;;12.40;99.90;;;;;;5110115;28;20048;-84
2023/05/28 04:40:50;;;;;;;15.27;5.43;;;12.40;99.90;;;;;;5111053;28;20050;-85
2023/05/28 04:43:16;;;;;;;13.48;4.88;;;12.40;99.90;;;;;;5114014;28;20039;-85
2023/05/28 04:45:43;;;;;;;12.60;5.03;;;12.40;99.90;;;;;;5114015;28;20142;-85
2023/05/28 04:48:09;;;;;;;18.45;6.28;;;12.50;99.90;;;;;;5113652;28;20432;-85
2023/05/28 04:50:35;;;;;;;12.38;5.15;;;12.40;99.90;;;;;;5114908;28;20032;-85
2023/05/28 04:53:01;;;;;;;18.52;4.57;;;12.50;99.90;;;;;;5114031;28;20504;-85
2023/05/28 04:55:26;;;;;;;18.67;8.70;;;12.50;99.90;;;;;;5096696;28;20039;-84
2023/05/28 04:57:52;;;;;;;18.35;8.57;;;12.60;99.90;;;;;;5115037;28;20048;-84
2023/05/28 05:00:18;;;;;;;15.00;5.10;;;12.70;99.90;;;;;;5096318;28;20040;-85
2023/05/28 05:02:44;;;;;;;18.48;4.78;;;12.60;99.90;;;;;;5096677;28;20051;-85
2023/05/28 05:05:11;;;;;;;13.75;5.40;;;12.60;99.90;;;;;;5113777;28;20039;-85
2023/05/28 05:07:37;;;;;;;18.77;9.07;;;12.60;99.90;;;;;;5096475;28;20054;-85
2023/05/28 05:10:13;;;;;;;15.55;4.95;;;12.70;99.90;;;;;;5113135;28;20051;-85
2023/05/28 05:12:39;;;;;;;16.23;5.25;;;12.80;99.90;;;;;;5106159;28;20058;-85
2023/05/28 05:15:05;;;;;;;14.25;5.50;;;12.70;99.90;;;;;;5114650;28;20038;-85
2023/05/28 05:17:32;;;;;;;17.60;5.85;;;12.80;99.90;;;;;;5096350;28;20042;-85
2023/05/28 05:19:58;;;;;;;13.05;5.32;;;12.80;99.90;;;;;;5096005;28;20493;-85
2023/05/28 05:22:23;;;;;;;19.83;9.93;;;12.90;99.90;;;;;;5093232;28;20068;-85
2023/05/28 05:24:49;;;;;;;15.63;5.25;;;13.00;99.90;;;;;;5092616;28;20051;-85
2023/05/28 05:27:15;;;;;;;17.42;5.97;;;13.10;99.90;;;;;;5092119;28;20044;-85
2023/05/28 05:29:41;;;;;;;17.58;6.13;;;13.10;99.90;;;;;;5092210;28;20086;-85
2023/05/28 05:32:07;;;;;;;19.80;8.88;;;13.10;99.90;;;;;;5092739;28;20485;-85
2023/05/28 05:34:33;;;;;;;16.20;6.18;;;13.20;99.90;;;;;;5110870;28;20565;-85
2023/05/28 05:36:59;;;;;;;19.52;9.30;;;13.30;99.90;;;;;;5092249;28;20048;-85
2023/05/28 05:39:25;;;;;;;19.98;6.53;;;13.40;99.90;;;;;;5093016;28;20050;-85
2023/05/28 05:41:51;;;;;;;15.25;6.05;;;13.40;99.90;;;;;;5095917;28;20048;-85
2023/05/28 05:44:16;;;;;;;16.27;5.97;;;13.40;99.90;;;;;;5095855;28;20047;-85
2023/05/28 05:46:42;;;;;;;14.55;5.70;;;13.50;99.90;;;;;;5096161;28;20040;-85
2023/05/28 05:49:09;;;;;;;17.33;6.10;;;13.50;99.90;;;;;;5113692;28;20035;-85
2023/05/28 05:51:35;;;;;;;22.20;10.02;;;13.60;99.90;;;;;;5095413;28;20044;-85
2023/05/28 05:54:05;;;;;;;18.85;9.35;;;13.70;99.90;;;;;;5078267;28;20172;-85
2023/05/28 05:56:31;;;;;;;17.77;9.40;;;13.80;99.90;;;;;;5099691;27;20046;-85
2023/05/28 05:58:58;;;;;;;17.30;5.82;;;13.90;99.90;;;;;;5103531;27;20114;-85
2023/05/28 06:01:24;;;;;;;16.23;9.10;;;13.90;99.90;;;;;;5098698;28;20496;-85
2023/05/28 06:03:50;;;;;;;18.17;9.35;;;14.00;99.90;;;;;;5093937;28;20051;-85
2023/05/28 06:06:15;;;;;;;12.52;4.50;;;14.10;99.90;;;;;;5095413;28;20039;-85
2023/05/28 06:08:41;;;;;;;15.55;4.85;;;14.10;99.90;;;;;;5095144;28;20044;-85
2023/05/28 06:11:07;;;;;;;16.42;5.15;;;14.10;99.90;;;;;;5094641;28;20123;-85
2023/05/28 06:13:35;;;;;;;13.60;6.40;;;14.20;99.90;;;;;;5095203;28;20078;-85
2023/05/28 06:16:01;;;;;;;18.50;9.00;;;14.20;99.90;;;;;;5095282;28;20039;-85
2023/05/28 06:18:27;;;;;;;13.40;5.30;;;14.40;99.90;;;;;;5086756;28;20100;-85
2023/05/28 06:20:53;;;;;;;13.52;5.63;;;14.40;99.90;;;;;;5086330;28;20496;-85
2023/05/28 06:23:18;;;;;;;18.75;8.45;;;14.50;99.90;;;;;;5077453;28;20043;-85
2023/05/28 06:25:44;;;;;;;13.45;5.18;;;14.60;99.90;;;;;;5074705;28;20501;-85
2023/05/28 06:28:10;;;;;;;14.60;7.65;;;14.60;99.90;;;;;;5074575;28;20069;-85
2023/05/28 06:30:36;;;;;;;15.43;5.55;;;14.80;99.90;;;;;;5074319;28;20032;-85
2023/05/28 06:33:02;;;;;;;13.68;5.15;;;14.80;99.90;;;;;;5074449;28;20483;-85
2023/05/28 06:35:28;;;;;;;15.27;6.22;;;14.90;99.90;;;;;;5074353;28;20047;-85
2023/05/28 06:37:53;;;;;;;14.82;5.75;;;14.90;99.90;;;;;;5057924;28;20153;-85
2023/05/28 06:40:19;;;;;;;15.13;5.55;;;15.00;99.90;;;;;;5074243;28;20090;-85
2023/05/28 06:42:45;;;;;;;15.68;5.65;;;15.10;99.90;;;;;;5074706;28;20097;-86
2023/05/28 06:45:11;;;;;;;14.15;6.72;;;15.20;99.90;;;;;;5074456;28;20051;-85
2023/05/28 06:47:37;;;;;;;15.10;4.63;;;15.30;99.90;;;;;;5073227;28;20047;-85
2023/05/28 06:50:03;;;;;;;16.50;7.25;;;15.40;99.90;;;;;;5095222;27;20035;-85
2023/05/28 06:52:29;;;;;;;16.95;6.97;;;15.50;99.90;;;;;;5103197;27;20023;-85
2023/05/28 06:54:55;;;;;;;13.98;6.57;;;15.60;99.90;;;;;;5086989;27;20492;-85
2023/05/28 06:57:21;;;;;;;14.27;6.82;;;15.60;99.90;;;;;;5096973;28;20036;-85
2023/05/28 06:59:46;;;;;;;12.73;6.55;;;15.70;99.90;;;;;;5096496;27;20065;-85
2023/05/28 07:02:12;;;;;;;15.85;6.50;;;15.70;99.90;;;;;;5094446;28;20063;-85
2023/05/28 07:04:38;;;;;;;13.13;5.25;;;15.80;99.90;;;;;;5111497;28;20070;-85
2023/05/28 07:07:04;;;;;;;17.65;6.90;;;15.70;99.90;;;;;;5094424;28;20035;-85
2023/05/28 07:09:30;;;;;;;13.50;4.50;;;15.80;99.80;;;;;;5093631;28;20097;-85
2023/05/28 07:11:56;;;;;;;14.48;4.68;;;15.80;99.90;;;;;;5095955;27;20076;-85
2023/05/28 07:14:22;;;;;;;14.25;6.60;;;15.80;99.90;;;;;;5119943;27;20119;-85
2023/05/28 07:16:48;;;;;;;15.32;6.13;;;15.90;98.40;;;;;;5101035;28;20035;-85
2023/05/28 07:19:14;;;;;;;14.32;6.22;;;16.10;97.10;;;;;;5093961;28;20059;-85
2023/05/28 07:21:39;;;;;;;11.38;4.63;;;16.10;95.80;;;;;;5112044;28;20148;-85
2023/05/28 07:24:05;;;;;;;15.52;4.93;;;16.20;96.00;;;;;;5094013;28;20051;-85
2023/05/28 07:26:31;;;;;;;14.95;6.70;;;16.30;96.30;;;;;;5094113;28;20105;-85
2023/05/28 07:28:57;;;;;;;15.48;6.40;;;16.40;95.40;;;;;;5093932;28;20412;-85
2023/05/28 07:31:23;;;;;;;13.45;5.03;;;16.50;94.30;;;;;;5093583;28;20119;-85
2023/05/28 07:33:50;;;;;;;12.82;4.57;;;16.50;94.10;;;;;;5093827;28;20104;-86
2023/05/28 07:36:16;;;;;;;17.52;6.57;;;16.60;94.70;;;;;;5112211;28;20066;-85
2023/05/28 07:38:42;;;;;;;15.88;6.88;;;16.70;94.20;;;;;;5112037;28;20484;-86
2023/05/28 07:41:08;;;;;;;14.05;6.50;;;16.80;94.40;;;;;;5093586;28;20047;-86
2023/05/28 07:43:34;;;;;;;15.88;6.45;;;16.90;94.40;;;;;;5112070;28;20039;-85
2023/05/28 07:45:59;;;;;;;16.58;6.20;;;17.00;93.60;;;;;;5112080;28;20040;-85
2023/05/28 07:48:25;;;;;;;14.23;5.90;;;17.10;93.00;;;;;;5093670;28;20464;-85
2023/05/28 07:50:51;;;;;;;14.40;6.53;;;17.20;93.00;;;;;;5076721;28;20088;-86
2023/05/28 07:53:17;;;;;;;13.48;6.22;;;17.30;93.30;;;;;;5093753;28;20054;-85
2023/05/28 07:55:44;;;;;;;14.38;6.18;;;17.40;93.40;;;;;;5112010;28;20408;-86
2023/05/28 07:58:11;;;;;;;14.80;6.03;;;17.50;94.00;;;;;;5100119;28;20051;-86
2023/05/28 08:00:37;;;;;;;17.73;6.13;;;17.60;93.40;;;;;;5102535;28;20050;-85
2023/05/28 08:03:03;;;;;;;15.68;6.18;;;17.70;93.50;;;;;;5122703;28;20027;-85
2023/05/28 08:05:29;;;;;;;16.40;6.63;;;17.80;93.00;;;;;;5102694;28;20567;-85
2023/05/28 08:07:55;;;;;;;15.20;6.30;;;17.80;91.70;;;;;;5103361;28;20512;-85
2023/05/28 08:10:20;;;;;;;15.18;6.32;;;17.90;90.30;;;;;;5104045;28;20035;-85
2023/05/28 08:12:46;;;;;;;13.60;5.68;;;17.90;90.20;;;;;;5120253;28;20042;-85
2023/05/28 08:15:12;;;;;;;13.10;5.68;;;18.10;90.30;;;;;;5104040;28;20405;-85
2023/05/28 08:17:37;;;;;;;20.30;6.93;;;18.10;90.00;;;;;;5105831;27;20040;-85
2023/05/28 08:20:04;;;;;;;15.75;6.45;;;18.20;89.90;;;;;;5107929;27;20027;-85
2023/05/28 08:22:30;;;;;;;15.88;6.75;;;18.30;90.00;;;;;;5107349;27;20443;-85
2023/05/28 08:24:55;;;;;;;14.48;5.68;;;18.40;89.20;;;;;;5089580;27;20042;-85
2023/05/28 08:27:21;;;;;;;15.45;6.30;;;18.40;88.20;;;;;;5108061;27;20494;-85
2023/05/28 08:29:47;;;;;;;15.43;6.28;;;18.50;86.50;;;;;;5105945;27;20039;-85
2023/05/28 08:32:12;;;;;;;13.48;6.32;;;18.60;87.10;;;;;;5106694;27;20392;-85
2023/05/28 08:34:39;;;;;;;15.52;7.40;;;18.60;86.00;;;;;;5108065;27;20400;-85
2023/05/28 08:37:06;;;;;;;16.17;6.53;;;18.70;86.00;;;;;;5106316;27;20067;-85
2023/05/28 08:39:32;;;;;;;17.55;6.65;;;18.80;86.10;;;;;;5106172;27;20075;-85
2023/05/28 08:41:58;;;;;;;18.02;6.53;;;18.90;86.10;;;;;;5108072;27;20126;-85
2023/05/28 08:44:23;;;;;;;14.48;6.25;;;18.90;85.50;;;;;;5106017;27;20067;-85
2023/05/28 08:46:50;;;;;;;15.95;6.70;;;19.00;83.70;;;;;;5103896;27;20484;-85
2023/05/28 08:49:18;;;;;;;14.02;7.13;;;19.10;81.70;;;;;;5107419;27;20039;-85
2023/05/28 08:51:48;;;;;;;15.07;6.47;;;19.10;81.10;;;;;;5106103;27;20039;-85
2023/05/28 08:54:15;;;;;;;13.95;6.32;;;19.20;80.90;;;;;;5105465;27;20054;-85
2023/05/28 08:56:41;;;;;;;15.65;6.18;;;19.30;81.40;;;;;;5103309;27;20500;-85
2023/05/28 08:59:10;;;;;;;14.13;6.60;;;19.30;81.50;;;;;;5106486;27;20039;-85
2023/05/28 09:01:37;;;;;;;15.48;6.32;;;19.40;80.20;;;;;;5107391;27;20496;-85
2023/05/28 09:04:03;;;;;;;13.10;5.78;;;19.50;79.70;;;;;;5104774;28;20109;-85
2023/05/28 09:06:33;;;;;;;15.10;6.18;;;19.60;79.50;;;;;;5105031;27;20071;-85
2023/05/28 09:08:58;;;;;;;15.50;6.15;;;19.60;79.20;;;;;;5106662;27;20074;-85
2023/05/28 09:11:24;;;;;;;15.73;6.35;;;19.70;78.30;;;;;;5106240;27;20505;-85
2023/05/28 09:13:50;;;;;;;16.40;6.15;;;19.80;77.00;;;;;;5105371;27;20036;-85
2023/05/28 09:16:21;;;;;;;14.95;6.00;;;19.80;76.40;;;;;;5106173;27;20035;-85
2023/05/28 09:19:01;;;;;;;15.98;7.28;;;19.80;76.20;;;;;;5107313;27;20370;-85
2023/05/28 09:21:26;;;;;;;13.68;5.60;;;19.90;76.00;;;;;;5124943;27;20031;-85
2023/05/28 09:23:52;;;;;;;14.73;5.75;;;19.90;75.00;;;;;;5105360;27;20055;-85
2023/05/28 09:26:20;;;;;;;18.45;5.88;;;20.00;76.10;;;;;;5123942;27;20054;-85
2023/05/28 09:28:48;;;;;;;13.95;6.13;;;20.10;75.80;;;;;;5106378;27;20036;-85
2023/05/28 09:31:14;;;;;;;13.23;6.32;;;20.20;75.70;;;;;;5105050;27;20040;-85
2023/05/28 09:33:45;;;;;;;14.10;6.20;;;20.30;74.30;;;;;;5123477;27;20043;-85
2023/05/28 09:36:11;;;;;;;15.25;6.47;;;20.30;73.50;;;;;;5105443;27;20042;-85
2023/05/28 09:38:41;;;;;;;15.85;6.57;;;20.40;73.70;;;;;;5116184;27;20059;-85
2023/05/28 09:41:27;;;;;;;12.95;6.20;;;20.50;74.20;;;;;;5113252;28;20133;-85
2023/05/28 09:44:00;;;;;;;12.73;6.25;;;20.50;73.20;;;;;;5103119;27;20043;-85
2023/05/28 09:46:29;;;;;;;15.02;6.22;;;20.60;73.20;;;;;;5134521;27;20070;-85
2023/05/28 09:48:56;;;;;;;16.42;7.18;;;20.70;72.80;;;;;;5115648;27;20039;-85
2023/05/28 09:51:25;;;;;;;13.15;6.22;;;20.80;72.50;;;;;;5115111;27;20035;-85
2023/05/28 09:53:55;;;;;;;13.73;6.28;;;20.80;71.60;;;;;;5115720;27;20087;-85
2023/05/28 09:56:22;;;;;;;13.90;6.35;;;20.90;71.90;;;;;;5116083;27;20065;-85
2023/05/28 09:58:53;;;;;;;13.73;6.18;;;21.00;71.30;;;;;;5115823;27;20118;-85
2023/05/28 10:01:24;;;;;;;13.20;6.28;;;21.10;71.10;;;;;;5115463;27;20050;-85
2023/05/28 10:03:57;;;;;;;13.43;6.50;;;21.10;71.20;;;;;;5133415;27;20051;-85
2023/05/28 10:06:25;;;;;;;15.68;6.55;;;21.20;70.80;;;;;;5096789;27;20050;-85
2023/05/28 10:08:52;;;;;;;18.52;6.53;;;21.30;70.40;;;;;;5113614;27;20118;-85
2023/05/28 10:11:25;;;;;;;16.23;6.40;;;21.40;70.40;;;;;;5113308;27;20059;-85
2023/05/28 10:13:51;;;;;;;15.30;6.93;;;21.50;70.60;;;;;;5132238;27;20043;-85
2023/05/28 10:16:19;;;;;;;13.07;6.20;;;21.50;70.20;;;;;;5113459;27;20039;-85
2023/05/28 10:18:45;;;;;;;11.85;5.55;;;21.60;69.90;;;;;;5113857;27;20038;-85
2023/05/28 10:21:13;;;;;;;14.40;6.55;;;21.70;69.10;;;;;;5115261;27;20046;-85
2023/05/28 10:23:40;;;;;;;14.35;6.90;;;21.70;68.10;;;;;;5115530;27;20527;-85
2023/05/28 10:26:06;;;;;;;13.32;6.05;;;21.70;68.50;;;;;;5133837;27;20042;-85
2023/05/28 10:28:32;;;;;;;13.65;6.20;;;21.80;68.60;;;;;;5133636;27;20393;-85
2023/05/28 10:31:04;;;;;;;13.40;6.18;;;21.90;68.20;;;;;;5114838;27;20526;-85
2023/05/28 10:33:30;;;;;;;14.07;6.13;;;21.90;67.60;;;;;;5098233;27;20035;-85
2023/05/28 10:36:00;;;;;;;14.30;6.65;;;22.00;68.10;;;;;;5134175;27;20360;-85
2023/05/28 10:38:27;;;;;;;10.30;5.25;;;22.10;68.80;;;;;;5115010;27;20047;-85
2023/05/28 10:41:00;;;;;;;15.77;6.65;;;22.20;67.60;;;;;;5133798;27;20369;-85
2023/05/28 10:43:38;;;;;;;17.52;6.03;;;22.30;67.80;;;;;;5115175;27;20088;-85
2023/05/28 10:46:09;;;;;;;12.18;5.47;;;22.50;66.90;;;;;;5115056;27;20046;-85
2023/05/28 10:48:39;;;;;;;11.15;5.35;;;22.50;66.30;;;;;;5114670;27;20043;-85
2023/05/28 10:51:05;;;;;;;15.27;6.50;;;22.60;65.90;;;;;;5114672;27;20461;-85
2023/05/28 10:53:31;;;;;;;12.15;5.63;;;22.80;65.50;;;;;;5114876;27;20043;-85
2023/05/28 10:55:57;;;;;;;12.32;5.45;;;22.80;64.80;;;;;;5133496;27;20378;-85
2023/05/28 10:58:33;;;;;;;17.02;5.45;;;22.90;64.10;;;;;;5115133;27;20089;-85
2023/05/28 11:01:11;;;;;;;12.45;5.43;;;23.00;63.60;;;;;;5114685;27;20078;-85
2023/05/28 11:03:44;;;;;;;13.75;6.25;;;23.00;64.00;;;;;;5115163;27;20445;-85
2023/05/28 11:06:11;;;;;;;13.65;5.88;;;23.10;62.10;;;;;;5115060;27;20080;-85
2023/05/28 11:08:42;;;;;;;13.45;5.32;;;23.10;63.20;;;;;;5114575;27;20046;-85
2023/05/28 11:11:13;;;;;;;12.05;5.97;;;23.20;62.90;;;;;;5097365;27;20114;-85
2023/05/28 11:13:42;;;;;;;11.95;5.80;;;23.30;61.80;;;;;;5114459;27;20042;-85
2023/05/28 11:16:09;;;;;;;10.13;5.47;;;23.40;61.60;;;;;;5114556;27;20047;-85
2023/05/28 11:18:35;;;;;;;14.07;5.30;;;23.50;61.60;;;;;;5114490;27;20069;-85
2023/05/28 11:21:08;;;;;;;11.68;5.45;;;23.60;61.10;;;;;;5132630;27;20110;-85
2023/05/28 11:23:36;;;;;;;13.25;5.38;;;23.70;60.10;;;;;;5114769;27;20416;-85
2023/05/28 11:26:03;;;;;;;11.05;5.22;;;23.70;58.80;;;;;;5114546;27;20043;-85
2023/05/28 11:28:30;;;;;;;12.80;5.10;;;23.80;59.20;;;;;;5114271;28;20043;-85
2023/05/28 11:30:57;;;;;;;12.63;5.35;;;23.90;59.40;;;;;;5113857;28;20039;-86
2023/05/28 11:33:26;;;;;;;13.00;5.25;;;24.00;59.50;;;;;;5114379;27;20051;-86
2023/05/28 11:36:00;;;;;;;11.90;5.68;;;24.10;58.10;;;;;;5114565;28;20043;-85
2023/05/28 11:38:26;;;;;;;13.82;5.80;;;24.20;57.30;;;;;;5097209;28;20045;-86
2023/05/28 11:40:58;;;;;;;12.20;5.53;;;24.20;56.90;;;;;;5132461;28;20118;-86
2023/05/28 11:43:24;;;;;;;;;;;24.30;56.80;;;;;;5114658;28;20035;-86
2023/05/28 11:45:53;;;;;;;13.82;5.15;;;24.40;58.00;;;;;;5114374;28;19923;-85
2023/05/28 11:48:19;;;;;;;10.95;5.00;;;24.50;57.70;;;;;;5113885;28;20050;-85
2023/05/28 11:50:44;;;;;;;11.95;4.97;;;24.60;57.20;;;;;;5114817;27;20039;-86
2023/05/28 11:53:11;;;;;;;11.10;5.20;;;24.70;56.50;;;;;;5118421;27;20064;-85
2023/05/28 11:55:37;;;;;;;11.80;5.20;;;24.80;56.10;;;;;;5136757;27;20057;-85
2023/05/28 11:58:03;;;;;;;15.00;5.38;;;24.90;56.00;;;;;;5118160;27;20043;-86
2023/05/28 12:00:36;;;;;;;14.30;5.95;;;25.00;54.60;;;;;;5135278;27;20135;-85
2023/05/28 12:03:01;;;;;;;11.40;5.15;;;25.10;54.80;;;;;;5118035;27;20114;-86
2023/05/28 12:05:27;;;;;;;10.98;4.55;;;25.20;54.30;;;;;;5136623;27;20114;-86
2023/05/28 12:07:54;;;;;;;12.52;5.53;;;25.20;53.60;;;;;;5118075;27;20039;-86
2023/05/28 12:10:26;;;;;;;14.13;4.82;;;25.20;54.10;;;;;;5117514;27;20118;-85
2023/05/28 12:12:55;;;;;;;11.73;5.18;;;25.30;53.70;;;;;;5136507;27;20057;-86
2023/05/28 12:15:32;;;;;;;10.63;4.63;;;25.40;52.60;;;;;;5136320;27;20065;-86
2023/05/28 12:18:00;;;;;;;12.75;5.13;;;25.50;52.70;;;;;;5117996;27;20070;-86
2023/05/28 12:20:31;;;;;;;13.55;5.07;;;25.50;52.30;;;;;;5136213;27;20058;-85
2023/05/28 12:23:08;;;;;;;9.27;4.43;;;25.60;51.00;;;;;;5096854;27;20042;-86
2023/05/28 12:25:42;;;;;;;10.65;4.50;;;25.70;50.10;;;;;;5108346;27;20035;-86
2023/05/28 12:28:12;;;;;;;9.50;4.20;;;25.80;50.50;;;;;;5105745;27;20043;-85
2023/05/28 12:30:39;;;;;;;12.63;5.15;;;25.90;50.10;;;;;;5105400;27;20032;-86
2023/05/28 12:33:05;;;;;;;9.30;4.30;;;26.00;50.00;;;;;;5107126;27;20043;-86
2023/05/28 12:35:31;;;;;;;7.88;3.95;;;26.00;48.90;;;;;;5099833;28;20036;-86